createdAt,value
2018-05-07T00:00:56.788Z,66.60
2018-05-07T00:03:26.131Z,67.00
2018-05-07T00:05:56.513Z,66.90
2018-05-07T00:08:33.680Z,66.50
2018-05-07T00:11:20.239Z,66.60
2018-05-07T00:13:50.097Z,66.70
2018-05-07T00:16:23.898Z,66.90
2018-05-07T00:18:52.420Z,66.60
2018-05-07T00:24:26.712Z,66.50
2018-05-07T00:26:56.912Z,66.30
2018-05-07T00:29:28.580Z,66.50
2018-05-07T00:31:59.081Z,67.30
2018-05-07T00:34:26.875Z,66.70
2018-05-07T00:36:54.653Z,66.30
2018-05-07T00:39:36.409Z,66.40
2018-05-07T00:42:18.823Z,66.30
2018-05-07T00:44:47.227Z,66.30
2018-05-07T00:47:20.293Z,65.70
2018-05-07T00:49:48.124Z,66.30
2018-05-07T00:52:16.464Z,65.60
2018-05-07T00:54:56.048Z,65.90
2018-05-07T00:57:23.833Z,65.80
2018-05-07T01:00:16.737Z,65.30
2018-05-07T01:02:45.311Z,65.80
2018-05-07T01:05:21.677Z,64.80
2018-05-07T01:07:53.797Z,62.00
2018-05-07T01:10:32.792Z,61.80
2018-05-07T01:13:04.083Z,60.90
2018-05-07T01:15:39.885Z,60.10
2018-05-07T01:18:08.680Z,60.00
2018-05-07T01:20:36.524Z,60.10
2018-05-07T01:23:10.394Z,59.40
2018-05-07T01:25:46.959Z,59.40
2018-05-07T01:28:15.945Z,59.30
2018-05-07T01:30:43.744Z,59.60
2018-05-07T01:33:12.064Z,59.70
2018-05-07T01:35:48.228Z,59.10
2018-05-07T01:38:34.864Z,59.20
2018-05-07T01:41:06.424Z,59.50
2018-05-07T01:43:34.751Z,59.50
2018-05-07T01:46:08.260Z,60.00
2018-05-07T01:48:36.063Z,58.90
2018-05-07T01:51:08.407Z,59.10
2018-05-07T01:53:47.879Z,59.00
2018-05-07T01:56:24.403Z,59.20
2018-05-07T01:59:03.109Z,59.10
2018-05-07T02:01:36.179Z,58.70
2018-05-07T02:04:08.779Z,59.30
2018-05-07T02:06:46.456Z,59.30
2018-05-07T02:09:36.460Z,58.90
2018-05-07T02:12:04.308Z,58.80
2018-05-07T02:14:32.905Z,58.90
2018-05-07T02:17:01.454Z,58.70
2018-05-07T02:19:29.232Z,58.70
2018-05-07T02:21:57.797Z,59.00
2018-05-07T02:24:25.581Z,58.90
2018-05-07T02:26:54.141Z,58.10
2018-05-07T02:29:21.924Z,58.00
2018-05-07T02:31:51.348Z,57.50
2018-05-07T02:34:19.917Z,57.10
2018-05-07T02:36:48.462Z,58.10
2018-05-07T02:39:16.299Z,58.50
2018-05-07T02:41:44.080Z,57.00
2018-05-07T02:44:11.883Z,57.90
2018-05-07T02:46:39.667Z,57.40
2018-05-07T02:49:08.248Z,56.30
2018-05-07T02:51:36.798Z,56.50
2018-05-07T02:54:04.657Z,56.50
2018-05-07T02:56:32.440Z,56.10
2018-05-07T02:59:00.302Z,56.30
2018-05-07T03:01:28.089Z,55.90
2018-05-07T03:03:55.910Z,55.20
2018-05-07T03:06:23.731Z,57.10
2018-05-07T03:08:52.273Z,55.20
2018-05-07T03:11:20.049Z,55.20
2018-05-07T03:13:47.832Z,54.00
2018-05-07T03:16:16.417Z,54.90
2018-05-07T03:18:44.980Z,54.50
2018-05-07T03:21:12.751Z,54.40
2018-05-07T03:23:40.557Z,54.80
2018-05-07T03:26:08.551Z,54.40
2018-05-07T03:28:36.350Z,53.70
2018-05-07T03:31:04.986Z,54.00
2018-05-07T03:33:32.782Z,54.00
2018-05-07T03:36:00.567Z,54.50
2018-05-07T03:38:29.171Z,55.00
2018-05-07T03:40:56.992Z,55.00
2018-05-07T03:43:24.764Z,54.90
2018-05-07T03:45:52.552Z,55.00
2018-05-07T03:48:21.116Z,55.60
2018-05-07T03:50:48.888Z,55.50
2018-05-07T03:53:17.434Z,54.50
2018-05-07T03:55:45.224Z,54.40
2018-05-07T03:58:13.013Z,55.10
2018-05-07T04:00:41.556Z,53.20
2018-05-07T04:03:09.325Z,53.20
2018-05-07T04:05:37.130Z,53.60
2018-05-07T04:08:04.915Z,53.80
2018-05-07T04:10:32.707Z,52.80
2018-05-07T04:13:00.571Z,52.30
2018-05-07T04:15:28.348Z,52.30
2018-05-07T04:18:07.832Z,52.90
2018-05-07T04:20:47.491Z,52.50
2018-05-07T04:23:27.001Z,52.40
2018-05-07T04:25:55.571Z,53.70
2018-05-07T04:28:23.340Z,53.70
2018-05-07T04:30:51.894Z,53.90
2018-05-07T04:33:19.694Z,53.80
2018-05-07T04:35:48.232Z,55.00
2018-05-07T04:38:16.071Z,55.00
2018-05-07T04:40:43.863Z,53.10
2018-05-07T04:43:11.708Z,53.10
2018-05-07T04:45:39.490Z,51.30
2018-05-07T04:48:07.278Z,51.20
2018-05-07T04:50:35.077Z,50.20
2018-05-07T04:53:02.848Z,50.20
2018-05-07T04:55:30.652Z,51.20
2018-05-07T04:57:58.420Z,51.70
2018-05-07T05:00:26.237Z,50.40
2018-05-07T05:02:54.005Z,51.10
2018-05-07T05:05:21.796Z,51.10
2018-05-07T05:07:49.580Z,51.20
2018-05-07T05:10:17.358Z,50.80
2018-05-07T05:12:45.134Z,51.30
2018-05-07T05:15:13.688Z,51.80
2018-05-07T05:17:41.484Z,51.10
2018-05-07T05:20:10.043Z,51.50
2018-05-07T05:22:37.889Z,51.50
2018-05-07T05:25:05.703Z,51.30
2018-05-07T05:27:34.237Z,52.20
2018-05-07T05:30:02.029Z,52.20
2018-05-07T05:32:29.803Z,52.00
2018-05-07T05:34:58.450Z,49.70
2018-05-07T05:37:26.278Z,49.50
2018-05-07T05:39:54.050Z,49.60
2018-05-07T05:42:21.815Z,50.40
2018-05-07T05:44:49.628Z,50.70
2018-05-07T05:47:17.424Z,50.20
2018-05-07T05:49:46.038Z,49.80
2018-05-07T05:52:13.816Z,49.80
2018-05-07T05:54:42.424Z,55.20
2018-05-07T05:57:10.222Z,54.60
2018-05-07T05:59:38.819Z,57.90
2018-05-07T06:02:06.668Z,58.00
2018-05-07T06:04:35.248Z,60.80
2018-05-07T06:07:03.792Z,62.00
2018-05-07T06:09:31.559Z,62.00
2018-05-07T06:11:59.341Z,62.70
2018-05-07T06:14:27.968Z,62.70
2018-05-07T06:16:55.785Z,62.60
2018-05-07T06:19:23.595Z,62.90
2018-05-07T06:21:51.377Z,64.30
2018-05-07T06:24:19.151Z,66.30
2018-05-07T06:26:46.970Z,67.70
2018-05-07T06:29:15.645Z,68.70
2018-05-07T06:31:44.207Z,68.70
2018-05-07T06:34:12.027Z,68.20
2018-05-07T06:36:39.824Z,69.20
2018-05-07T06:39:07.631Z,69.60
2018-05-07T06:41:36.196Z,70.20
2018-05-07T06:44:03.990Z,70.10
2018-05-07T06:46:32.561Z,69.90
2018-05-07T06:49:00.391Z,69.90
2018-05-07T06:51:28.784Z,69.90
2018-05-07T06:53:56.585Z,69.90
2018-05-07T06:56:25.168Z,70.00
2018-05-07T06:58:52.967Z,70.00
2018-05-07T07:01:20.793Z,70.30
2018-05-07T07:03:49.380Z,69.60
2018-05-07T07:06:17.920Z,69.80
2018-05-07T07:08:45.701Z,69.90
2018-05-07T07:11:13.499Z,70.00
2018-05-07T07:13:41.287Z,69.60
2018-05-07T07:16:09.073Z,68.80
2018-05-07T07:18:37.639Z,69.60
2018-05-07T07:21:05.471Z,70.10
2018-05-07T07:23:33.266Z,69.50
2018-05-07T07:26:01.076Z,69.70
2018-05-07T07:28:28.880Z,69.20
2018-05-07T07:30:56.659Z,69.20
2018-05-07T07:33:24.433Z,69.00
2018-05-07T07:35:52.241Z,69.10
2018-05-07T07:38:20.795Z,69.10
2018-05-07T07:40:48.592Z,69.10
2018-05-07T07:43:17.195Z,68.50
2018-05-07T07:45:45.014Z,68.50
2018-05-07T07:48:12.851Z,68.50
2018-05-07T07:50:40.627Z,68.30
2018-05-07T07:53:08.396Z,68.20
2018-05-07T07:55:36.205Z,68.20
2018-05-07T07:58:04.777Z,67.90
2018-05-07T08:00:33.407Z,67.30
2018-05-07T08:03:01.201Z,67.30
2018-05-07T08:05:28.988Z,67.30
2018-05-07T08:07:57.605Z,66.10
2018-05-07T08:10:25.399Z,66.10
2018-05-07T08:12:53.207Z,64.80
2018-05-07T08:15:21.749Z,62.10
2018-05-07T08:17:49.597Z,62.30
2018-05-07T08:20:17.379Z,62.00
2018-05-07T08:22:45.204Z,61.30
2018-05-07T08:25:12.993Z,60.30
2018-05-07T08:27:40.804Z,59.80
2018-05-07T08:30:08.644Z,59.80
2018-05-07T08:32:36.457Z,57.90
2018-05-07T08:35:04.337Z,56.30
2018-05-07T08:37:32.129Z,54.80
2018-05-07T08:39:59.928Z,54.20
2018-05-07T08:42:27.719Z,54.20
2018-05-07T08:44:55.496Z,54.20
2018-05-07T08:47:23.276Z,54.90
2018-05-07T08:49:51.102Z,58.20
2018-05-07T08:52:19.648Z,58.70
2018-05-07T08:54:47.477Z,58.70
2018-05-07T08:57:15.344Z,58.50
2018-05-07T08:59:43.556Z,58.80
2018-05-07T09:02:11.385Z,58.20
2018-05-07T09:04:39.302Z,57.80
2018-05-07T09:07:07.108Z,58.20
2018-05-07T09:09:34.980Z,58.30
2018-05-07T09:12:02.873Z,58.20
2018-05-07T09:14:30.675Z,58.10
2018-05-07T09:16:58.454Z,58.00
2018-05-07T09:19:27.025Z,58.20
2018-05-07T09:21:55.597Z,58.40
2018-05-07T09:24:23.382Z,58.40
2018-05-07T09:26:52.089Z,59.20
2018-05-07T09:29:19.864Z,59.20
2018-05-07T09:31:47.644Z,59.50
2018-05-07T09:34:15.448Z,59.60
2018-05-07T09:36:43.215Z,59.70
2018-05-07T09:39:11.768Z,59.60
2018-05-07T09:41:39.620Z,59.60
2018-05-07T09:44:07.437Z,59.90
2018-05-07T09:46:35.242Z,59.30
2018-05-07T09:49:03.073Z,59.10
2018-05-07T09:51:30.880Z,58.70
2018-05-07T09:53:58.672Z,58.90
2018-05-07T09:56:26.493Z,59.10
2018-05-07T09:58:58.217Z,59.20
2018-05-07T10:01:26.783Z,59.80
2018-05-07T10:03:54.636Z,59.70
2018-05-07T10:06:22.412Z,59.80
2018-05-07T10:08:50.199Z,59.80
2018-05-07T10:11:18.773Z,60.20
2018-05-07T10:13:47.312Z,59.90
2018-05-07T10:16:15.111Z,59.30
2018-05-07T10:18:42.949Z,58.70
2018-05-07T10:21:10.726Z,58.40
2018-05-07T10:23:38.512Z,58.60
2018-05-07T10:26:06.362Z,57.80
2018-05-07T10:28:34.172Z,57.40
2018-05-07T10:31:02.795Z,57.40
2018-05-07T10:33:30.573Z,57.30
2018-05-07T10:35:58.412Z,57.30
2018-05-07T10:38:26.185Z,56.80
2018-05-07T10:40:53.991Z,56.50
2018-05-07T10:43:22.596Z,56.40
2018-05-07T10:45:50.376Z,56.30
2018-05-07T10:48:18.165Z,56.20
2018-05-07T10:50:45.957Z,55.80
2018-05-07T10:53:13.802Z,55.10
2018-05-07T10:55:41.584Z,55.40
2018-05-07T10:58:09.368Z,54.80
2018-05-07T11:00:37.963Z,55.50
2018-05-07T11:03:05.751Z,55.50
2018-05-07T11:05:33.534Z,55.50
2018-05-07T11:08:01.341Z,54.80
2018-05-07T11:10:29.889Z,54.30
2018-05-07T11:12:57.685Z,54.30
2018-05-07T11:15:26.261Z,53.80
2018-05-07T11:17:54.036Z,53.80
2018-05-07T11:20:22.581Z,54.90
2018-05-07T11:22:50.376Z,54.80
2018-05-07T11:25:18.962Z,53.70
2018-05-07T11:27:47.549Z,53.50
2018-05-07T11:30:16.096Z,53.70
2018-05-07T11:32:43.889Z,53.70
2018-05-07T11:35:12.476Z,53.80
2018-05-07T11:37:41.061Z,52.90
2018-05-07T11:40:09.608Z,53.50
2018-05-07T11:42:37.391Z,53.40
2018-05-07T11:45:05.194Z,53.20
2018-05-07T11:47:33.059Z,53.20
2018-05-07T11:50:00.816Z,53.40
2018-05-07T11:52:29.416Z,53.10
2018-05-07T11:54:57.211Z,53.20
2018-05-07T11:57:25.000Z,53.50
2018-05-07T11:59:53.670Z,53.50
2018-05-07T12:02:21.540Z,53.50
2018-05-07T12:04:49.335Z,53.10
2018-05-07T12:07:17.909Z,53.20
2018-05-07T12:09:46.455Z,53.60
2018-05-07T12:12:14.306Z,53.60
2018-05-07T12:14:42.101Z,54.00
2018-05-07T12:17:09.910Z,54.40
2018-05-07T12:19:38.450Z,51.90
2018-05-07T12:22:06.247Z,51.70
2018-05-07T12:24:34.852Z,51.50
2018-05-07T12:27:02.647Z,51.40
2018-05-07T12:29:30.445Z,52.60
2018-05-07T12:31:58.996Z,51.20
2018-05-07T12:34:26.795Z,51.20
2018-05-07T12:36:55.349Z,50.40
2018-05-07T12:39:23.145Z,50.30
2018-05-07T12:41:51.728Z,49.40
2018-05-07T12:44:20.289Z,47.90
2018-05-07T12:46:48.111Z,47.80
2018-05-07T12:49:15.936Z,48.80
2018-05-07T12:51:43.730Z,48.20
2018-05-07T12:54:11.521Z,47.60
2018-05-07T12:56:39.342Z,48.10
2018-05-07T12:59:07.195Z,47.30
2018-05-07T13:01:35.012Z,47.10
2018-05-07T13:04:02.812Z,48.00
2018-05-07T13:06:30.637Z,47.60
2018-05-07T13:08:58.467Z,46.70
2018-05-07T13:11:27.065Z,47.00
2018-05-07T13:13:54.871Z,46.90
2018-05-07T13:16:22.655Z,46.40
2018-05-07T13:18:50.440Z,46.80
2018-05-07T13:21:19.020Z,47.50
2018-05-07T13:23:47.940Z,46.50
2018-05-07T13:26:15.867Z,46.50
2018-05-07T13:28:43.652Z,46.50
2018-05-07T13:31:12.212Z,47.40
2018-05-07T13:33:40.008Z,47.30
2018-05-07T13:36:08.623Z,45.60
2018-05-07T13:38:36.423Z,45.60
2018-05-07T13:41:04.244Z,46.30
2018-05-07T13:43:32.079Z,46.00
2018-05-07T13:46:00.686Z,46.10
2018-05-07T13:48:28.475Z,46.00
2018-05-07T13:50:56.283Z,45.90
2018-05-07T13:53:24.848Z,46.50
2018-05-07T13:55:52.740Z,46.60
2018-05-07T13:58:21.307Z,50.60
2018-05-07T14:01:00.423Z,50.60
2018-05-07T14:03:28.216Z,54.70
2018-05-07T14:05:56.096Z,55.50
2018-05-07T14:08:23.928Z,55.30
2018-05-07T14:10:51.736Z,54.60
2018-05-07T14:13:26.349Z,54.40
2018-05-07T14:15:59.071Z,54.00
2018-05-07T14:18:26.871Z,54.20
2018-05-07T14:20:54.734Z,55.50
2018-05-07T14:23:22.576Z,57.10
2018-05-07T14:25:50.468Z,57.60
2018-05-07T14:28:18.253Z,59.70
2018-05-07T14:30:46.796Z,57.40
2018-05-07T14:33:14.602Z,57.30
2018-05-07T14:35:42.406Z,58.40
2018-05-07T14:38:10.206Z,58.60
2018-05-07T14:40:37.988Z,59.30
2018-05-07T14:43:06.535Z,60.70
2018-05-07T14:45:34.480Z,60.70
2018-05-07T14:48:02.269Z,61.40
2018-05-07T14:50:30.126Z,62.10
2018-05-07T14:52:57.939Z,63.80
2018-05-07T14:55:26.537Z,65.30
2018-05-07T14:57:54.444Z,65.30
2018-05-07T15:00:22.221Z,66.80
2018-05-07T15:02:50.039Z,68.10
2018-05-07T15:05:17.824Z,69.50
2018-05-07T15:07:45.625Z,69.30
2018-05-07T15:10:13.429Z,70.30
2018-05-07T15:12:41.219Z,71.80
2018-05-07T15:15:09.016Z,72.20
2018-05-07T15:17:36.836Z,72.60
2018-05-07T15:20:04.652Z,72.60
2018-05-07T15:22:32.492Z,73.90
2018-05-07T15:25:00.334Z,74.80
2018-05-07T15:27:28.112Z,75.70
2018-05-07T15:29:57.132Z,76.70
2018-05-07T15:32:24.924Z,77.60
2018-05-07T15:34:53.516Z,79.20
2018-05-07T15:37:22.084Z,79.90
2018-05-07T15:39:50.668Z,80.10
2018-05-07T15:42:19.377Z,80.40
2018-05-07T15:44:47.163Z,80.40
2018-05-07T15:47:14.949Z,81.20
2018-05-07T15:49:42.754Z,81.40
2018-05-07T15:52:11.316Z,81.50
2018-05-07T15:54:39.181Z,81.40
2018-05-07T15:57:06.996Z,81.60
2018-05-07T15:59:34.810Z,81.30
2018-05-07T16:02:02.605Z,81.60
2018-05-07T16:04:31.168Z,82.20
2018-05-07T16:06:59.005Z,82.10
2018-05-07T16:09:26.789Z,82.50
2018-05-07T16:11:54.593Z,82.80
2018-05-07T16:14:22.394Z,83.20
2018-05-07T16:16:50.276Z,83.80
2018-05-07T16:19:18.084Z,84.30
2018-05-07T16:21:45.954Z,84.90
2018-05-07T16:24:13.753Z,85.10
2018-05-07T16:26:41.585Z,85.30
2018-05-07T16:29:09.407Z,84.80
2018-05-07T16:31:37.329Z,85.20
2018-05-07T16:34:05.225Z,85.30
2018-05-07T16:36:33.105Z,85.60
2018-05-07T16:39:01.217Z,86.90
2018-05-07T16:41:29.090Z,87.20
2018-05-07T16:43:57.226Z,87.50
2018-05-07T16:46:25.155Z,88.20
2018-05-07T16:48:53.015Z,88.50
2018-05-07T16:51:20.945Z,89.20
2018-05-07T16:53:49.487Z,89.90
2018-05-07T16:56:17.312Z,89.90
2018-05-07T16:58:45.105Z,90.10
2018-05-07T17:01:12.917Z,90.00
2018-05-07T17:03:41.464Z,90.20
2018-05-07T17:06:09.261Z,90.20
2018-05-07T17:08:37.071Z,89.60
2018-05-07T17:11:04.859Z,88.90
2018-05-07T17:13:33.429Z,88.00
2018-05-07T17:16:01.236Z,88.10
2018-05-07T17:18:29.826Z,89.20
2018-05-07T17:20:58.387Z,88.10
2018-05-07T17:23:26.198Z,88.10
2018-05-07T17:25:54.014Z,88.10
2018-05-07T17:28:21.807Z,87.70
2018-05-07T17:30:50.375Z,87.30
2018-05-07T17:33:18.176Z,87.30
2018-05-07T17:35:46.009Z,87.30
2018-05-07T17:38:14.664Z,87.80
2018-05-07T17:40:42.477Z,87.70
2018-05-07T17:43:11.042Z,87.90
2018-05-07T17:46:03.277Z,88.30
2018-05-07T17:48:42.865Z,87.60
2018-05-07T17:51:10.655Z,87.10
2018-05-07T17:53:38.499Z,87.30
2018-05-07T17:56:07.093Z,87.30
2018-05-07T17:58:34.896Z,87.30
2018-05-07T18:01:02.702Z,87.20
2018-05-07T18:03:30.497Z,87.40
2018-05-07T18:05:58.344Z,87.70
2018-05-07T18:08:26.380Z,87.80
2018-05-07T18:10:54.193Z,87.50
2018-05-07T18:13:22.034Z,87.30
2018-05-07T18:15:49.812Z,87.30
2018-05-07T18:18:18.392Z,87.60
2018-05-07T18:20:46.217Z,87.60
2018-05-07T18:23:15.423Z,87.80
2018-05-07T18:25:44.058Z,88.00
2018-05-07T18:28:12.653Z,87.90
2018-05-07T18:30:40.503Z,87.90
2018-05-07T18:33:08.302Z,87.60
2018-05-07T18:35:36.152Z,87.40
2018-05-07T18:38:03.986Z,87.60
2018-05-07T18:40:31.768Z,87.60
2018-05-07T18:42:59.559Z,87.60
2018-05-07T18:45:27.352Z,87.80
2018-05-07T18:47:55.892Z,87.60
2018-05-07T18:50:23.669Z,87.60
2018-05-07T18:52:51.464Z,87.70
2018-05-07T18:55:19.340Z,87.60
2018-05-07T18:57:47.208Z,87.80
2018-05-07T19:00:15.131Z,87.60
2018-05-07T19:02:42.915Z,88.00
2018-05-07T19:05:10.724Z,88.80
2018-05-07T19:07:38.516Z,90.10
2018-05-07T19:10:06.325Z,89.70
2018-05-07T19:12:34.171Z,89.50
2018-05-07T19:15:02.732Z,89.00
2018-05-07T19:17:30.849Z,89.00
2018-05-07T19:19:58.648Z,88.90
2018-05-07T19:22:26.473Z,88.80
2018-05-07T19:24:55.031Z,87.70
2018-05-07T19:27:22.828Z,87.70
2018-05-07T19:29:50.619Z,87.30
2018-05-07T19:32:18.454Z,87.00
2018-05-07T19:34:46.400Z,87.20
2018-05-07T19:37:14.190Z,87.20
2018-05-07T19:39:41.965Z,87.30
2018-05-07T19:42:09.769Z,87.40
2018-05-07T19:44:37.608Z,87.00
2018-05-07T19:47:05.409Z,86.90
2018-05-07T19:49:33.219Z,86.90
2018-05-07T19:52:01.022Z,86.90
2018-05-07T19:54:28.856Z,86.90
2018-05-07T19:56:56.636Z,86.90
2018-05-07T19:59:24.429Z,86.60
2018-05-07T20:01:52.248Z,86.40
2018-05-07T20:04:20.032Z,86.40
2018-05-07T20:06:47.818Z,86.80
2018-05-07T20:09:15.608Z,88.00
2018-05-07T20:11:44.154Z,87.20
2018-05-07T20:14:12.053Z,87.10
2018-05-07T20:16:39.783Z,87.80
2018-05-07T20:19:07.573Z,87.50
2018-05-07T20:21:35.360Z,87.10
2018-05-07T20:24:03.940Z,86.60
2018-05-07T20:26:32.516Z,86.40
2018-05-07T20:29:01.094Z,86.30
2018-05-07T20:31:28.907Z,86.30
2018-05-07T20:33:56.731Z,86.50
2018-05-07T20:36:25.413Z,86.80
2018-05-07T20:38:53.971Z,86.80
2018-05-07T20:41:21.776Z,86.80
2018-05-07T20:43:50.335Z,86.80
2018-05-07T20:46:18.902Z,86.60
2018-05-07T20:48:46.764Z,86.50
2018-05-07T20:51:14.611Z,86.40
2018-05-07T20:53:42.415Z,86.50
2018-05-07T20:56:10.233Z,86.20
2018-05-07T20:58:38.076Z,86.40
2018-05-07T21:01:06.773Z,86.00
2018-05-07T21:03:34.616Z,86.00
2018-05-07T21:06:03.228Z,85.70
2018-05-07T21:08:31.035Z,85.60
2018-05-07T21:10:58.907Z,85.30
2018-05-07T21:13:26.740Z,85.50
2018-05-07T21:15:54.559Z,85.40
2018-05-07T21:18:22.424Z,85.20
2018-05-07T21:20:51.012Z,85.30
2018-05-07T21:23:19.660Z,85.30
2018-05-07T21:25:47.604Z,85.30
2018-05-07T21:28:15.384Z,85.40
2018-05-07T21:30:43.191Z,85.40
2018-05-07T21:33:11.780Z,85.90
2018-05-07T21:35:40.422Z,85.80
2018-05-07T21:38:09.106Z,86.60
2018-05-07T21:40:36.970Z,85.90
2018-05-07T21:43:04.805Z,85.80
2018-05-07T21:45:32.588Z,85.80
2018-05-07T21:48:00.401Z,85.90
2018-05-07T21:50:28.274Z,86.00
2018-05-07T21:52:56.093Z,86.00
2018-05-07T21:55:23.898Z,86.60
2018-05-07T21:57:52.458Z,85.60
2018-05-07T22:00:20.261Z,85.60
2018-05-07T22:02:48.801Z,85.50
2018-05-07T22:05:16.620Z,85.60
2018-05-07T22:07:44.425Z,85.50
2018-05-07T22:10:12.226Z,85.60
2018-05-07T22:12:40.770Z,85.60
2018-05-07T22:15:08.572Z,85.60
2018-05-07T22:17:37.120Z,86.60
2018-05-07T22:20:04.952Z,86.60
2018-05-07T22:22:32.773Z,87.40
2018-05-07T22:25:01.372Z,87.80
2018-05-07T22:27:29.945Z,88.00
2018-05-07T22:29:57.785Z,88.00
2018-05-07T22:32:25.555Z,88.30
2018-05-07T22:34:53.360Z,88.70
2018-05-07T22:37:21.175Z,89.90
2018-05-07T22:39:49.002Z,90.00
2018-05-07T22:42:16.812Z,89.60
2018-05-07T22:44:44.606Z,90.40
2018-05-07T22:47:13.187Z,90.50
2018-05-07T22:49:41.870Z,90.10
2018-05-07T22:52:09.750Z,90.10
2018-05-07T22:54:37.503Z,90.10
2018-05-07T22:57:05.360Z,89.80
2018-05-07T22:59:33.173Z,90.00
2018-05-07T23:02:00.984Z,90.10
2018-05-07T23:04:28.764Z,90.10
2018-05-07T23:06:57.328Z,90.10
2018-05-07T23:09:25.113Z,90.10
2018-05-07T23:11:53.692Z,90.30
2018-05-07T23:14:22.272Z,90.00
2018-05-07T23:16:50.899Z,90.10
2018-05-07T23:19:18.699Z,90.10
2018-05-07T23:21:46.500Z,90.10
2018-05-07T23:24:15.075Z,90.00
2018-05-07T23:26:43.632Z,90.10
2018-05-07T23:29:11.425Z,90.00
2018-05-07T23:31:39.963Z,90.30
2018-05-07T23:34:07.744Z,90.30
2018-05-07T23:36:35.544Z,90.20
2018-05-07T23:39:04.193Z,90.20
2018-05-07T23:41:31.992Z,90.20
2018-05-07T23:44:00.564Z,90.40
2018-05-07T23:46:29.115Z,90.40
2018-05-07T23:48:57.733Z,90.20
2018-05-07T23:51:26.282Z,90.00
2018-05-07T23:53:54.081Z,90.00
2018-05-07T23:56:22.663Z,89.90
2018-05-07T23:58:51.228Z,90.00
